createdAt,value
2023-04-20T00:00:01.781Z,81.84
2023-04-20T00:01:01.654Z,82.76
2023-04-20T00:02:01.704Z,81.42
2023-04-20T00:03:01.817Z,82.04
2023-04-20T00:04:01.702Z,80.60
2023-04-20T00:05:01.671Z,80.74
2023-04-20T00:06:01.583Z,80.60
2023-04-20T00:07:01.586Z,82.04
2023-04-20T00:08:02.580Z,82.80
2023-04-20T00:09:01.583Z,81.98
2023-04-20T00:10:01.609Z,81.87
2023-04-20T00:11:01.561Z,82.80
2023-04-20T00:12:01.545Z,83.11
2023-04-20T00:13:01.547Z,82.66
2023-04-20T00:14:01.534Z,82.80
2023-04-20T00:15:01.503Z,83.22
2023-04-20T00:16:01.538Z,83.42
2023-04-20T00:17:01.575Z,83.59
2023-04-20T00:18:01.560Z,83.39
2023-04-20T00:19:01.480Z,82.66
2023-04-20T00:20:01.466Z,82.56
2023-04-20T00:21:01.560Z,82.87
2023-04-20T00:22:01.453Z,82.76
2023-04-20T00:23:01.438Z,82.83
2023-04-20T00:24:01.438Z,82.97
2023-04-20T00:25:01.437Z,83.70
2023-04-20T00:26:01.399Z,83.59
2023-04-20T00:27:01.418Z,83.04
2023-04-20T00:28:01.437Z,82.93
2023-04-20T00:29:01.388Z,83.45
2023-04-20T00:30:01.441Z,83.14
2023-04-20T00:31:01.386Z,83.10
2023-04-20T00:32:01.433Z,83.41
2023-04-20T00:33:01.365Z,83.20
2023-04-20T00:34:01.320Z,82.69
2023-04-20T00:35:01.338Z,82.79
2023-04-20T00:36:01.328Z,83.10
2023-04-20T00:37:01.303Z,82.89
2023-04-20T00:38:01.279Z,82.59
2023-04-20T00:39:01.281Z,82.89
2023-04-20T00:40:01.285Z,82.79
2023-04-20T00:41:01.295Z,81.80
2023-04-20T00:42:01.251Z,82.48
2023-04-20T00:43:01.253Z,82.17
2023-04-20T00:44:01.242Z,82.42
2023-04-20T00:45:01.212Z,82.25
2023-04-20T00:46:01.235Z,82.97
2023-04-20T00:47:01.224Z,83.90
2023-04-20T00:48:01.216Z,84.11
2023-04-20T00:49:01.170Z,83.25
2023-04-20T00:50:01.147Z,83.39
2023-04-20T00:51:01.180Z,83.39
2023-04-20T00:52:01.156Z,83.55
2023-04-20T00:53:01.132Z,83.18
2023-04-20T00:54:01.118Z,83.39
2023-04-20T00:55:01.124Z,83.65
2023-04-20T00:56:01.126Z,83.55
2023-04-20T00:57:01.102Z,83.34
2023-04-20T00:58:01.106Z,83.49
2023-04-20T00:59:01.076Z,83.45
2023-04-20T01:00:01.070Z,83.90
2023-04-20T01:01:01.072Z,83.86
2023-04-20T01:02:01.122Z,83.59
2023-04-20T01:03:01.202Z,82.97
2023-04-20T01:04:01.076Z,83.70
2023-04-20T01:05:01.035Z,83.70
2023-04-20T01:06:01.001Z,83.90
2023-04-20T01:07:01.019Z,83.55
2023-04-20T01:08:01.043Z,83.90
2023-04-20T01:09:00.989Z,83.55
2023-04-20T01:10:01.975Z,83.49
2023-04-20T01:11:00.943Z,83.49
2023-04-20T01:12:00.946Z,84.63
2023-04-20T01:13:00.954Z,84.15
2023-04-20T01:14:00.998Z,84.05
2023-04-20T01:15:00.913Z,84.77
2023-04-20T01:16:00.929Z,84.87
2023-04-20T01:17:00.904Z,85.08
2023-04-20T01:18:00.937Z,84.87
2023-04-20T01:19:00.891Z,84.77
2023-04-20T01:20:00.898Z,84.66
2023-04-20T01:21:00.868Z,84.25
2023-04-20T01:22:00.839Z,84.77
2023-04-20T01:23:00.847Z,84.81
2023-04-20T01:24:00.856Z,84.70
2023-04-20T01:25:00.825Z,84.81
2023-04-20T01:26:00.838Z,84.74
2023-04-20T01:27:00.825Z,85.26
2023-04-20T01:28:00.797Z,85.16
2023-04-20T01:29:00.804Z,84.91
2023-04-20T01:30:00.765Z,86.09
2023-04-20T01:31:00.877Z,85.47
2023-04-20T01:32:00.753Z,85.40
2023-04-20T01:33:00.778Z,86.09
2023-04-20T01:34:00.740Z,86.50
2023-04-20T01:35:00.745Z,87.06
2023-04-20T01:36:00.720Z,86.65
2023-04-20T01:37:00.704Z,86.54
2023-04-20T01:38:00.703Z,86.96
2023-04-20T01:39:00.692Z,86.89
2023-04-20T01:40:00.711Z,86.75
2023-04-20T01:41:00.666Z,88.09
2023-04-20T01:42:00.665Z,87.57
2023-04-20T01:43:00.668Z,87.78
2023-04-20T01:44:00.661Z,88.09
2023-04-20T01:45:00.630Z,87.57
2023-04-20T01:46:00.625Z,88.20
2023-04-20T01:47:00.795Z,88.82
2023-04-20T01:48:00.647Z,88.51
2023-04-20T01:49:00.611Z,88.71
2023-04-20T01:50:00.598Z,88.40
2023-04-20T01:51:00.573Z,88.09
2023-04-20T01:52:00.606Z,88.61
2023-04-20T01:53:00.541Z,88.51
2023-04-20T01:54:00.540Z,89.03
2023-04-20T01:55:00.552Z,89.65
2023-04-20T01:56:00.521Z,89.13
2023-04-20T01:57:00.524Z,89.75
2023-04-20T01:58:00.510Z,89.13
2023-04-20T01:59:00.518Z,90.26
2023-04-20T02:00:00.503Z,90.06
2023-04-20T02:01:00.531Z,89.44
2023-04-20T02:02:00.525Z,90.06
2023-04-20T02:03:00.638Z,89.40
2023-04-20T02:04:00.542Z,89.65
2023-04-20T02:05:00.447Z,89.13
2023-04-20T02:06:00.428Z,89.23
2023-04-20T02:07:00.421Z,88.71
2023-04-20T02:08:00.439Z,88.82
2023-04-20T02:09:00.437Z,89.34
2023-04-20T02:10:00.415Z,88.92
2023-04-20T02:11:00.392Z,89.34
2023-04-20T02:12:00.385Z,89.44
2023-04-20T02:13:00.384Z,89.23
2023-04-20T02:14:00.387Z,88.30
2023-04-20T02:15:00.358Z,88.30
2023-04-20T02:16:00.359Z,88.61
2023-04-20T02:17:00.378Z,88.76
2023-04-20T02:18:00.436Z,88.96
2023-04-20T02:19:00.303Z,89.07
2023-04-20T02:20:00.295Z,90.00
2023-04-20T02:21:00.325Z,90.00
2023-04-20T02:22:00.281Z,90.00
2023-04-20T02:23:00.290Z,90.00
2023-04-20T02:24:00.250Z,90.14
2023-04-20T02:25:00.254Z,90.72
2023-04-20T02:26:00.245Z,90.52
2023-04-20T02:27:00.220Z,90.87
2023-04-20T02:28:00.261Z,90.45
2023-04-20T02:29:00.214Z,90.41
2023-04-20T02:30:00.196Z,89.83
2023-04-20T02:31:00.234Z,90.25
2023-04-20T02:32:00.170Z,89.94
2023-04-20T02:33:00.207Z,90.45
2023-04-20T02:34:00.209Z,90.77
2023-04-20T02:35:00.185Z,90.77
2023-04-20T02:36:00.194Z,90.56
2023-04-20T02:37:00.116Z,90.04
2023-04-20T02:38:00.148Z,90.25
2023-04-20T02:39:00.112Z,90.04
2023-04-20T02:40:00.188Z,90.14
2023-04-20T02:41:00.122Z,90.25
2023-04-20T02:42:00.109Z,90.77
2023-04-20T02:43:00.085Z,90.14
2023-04-20T02:44:00.051Z,89.94
2023-04-20T02:45:00.047Z,89.98
2023-04-20T02:46:00.080Z,90.04
2023-04-20T02:47:00.069Z,90.56
2023-04-20T02:48:00.168Z,90.77
2023-04-20T02:49:00.020Z,90.14
2023-04-20T02:50:00.033Z,90.56
2023-04-20T02:51:31.925Z,90.29
2023-04-20T02:51:59.986Z,90.50
2023-04-20T02:52:59.981Z,90.35
2023-04-20T02:53:59.961Z,90.70
2023-04-20T02:54:59.930Z,90.91
2023-04-20T02:55:59.998Z,91.39
2023-04-20T02:56:59.922Z,91.74
2023-04-20T02:57:59.932Z,91.64
2023-04-20T02:58:59.912Z,91.85
2023-04-20T02:59:59.895Z,91.43
2023-04-20T03:00:59.897Z,91.22
2023-04-20T03:01:59.951Z,91.43
2023-04-20T03:02:59.963Z,91.64
2023-04-20T03:03:59.982Z,91.33
2023-04-20T03:04:59.843Z,90.50
2023-04-20T03:05:59.850Z,91.33
2023-04-20T03:06:59.847Z,91.74
2023-04-20T03:07:59.847Z,90.81
2023-04-20T03:08:59.809Z,91.12
2023-04-20T03:09:59.795Z,90.81
2023-04-20T03:10:59.777Z,91.02
2023-04-20T03:11:59.794Z,91.85
2023-04-20T03:12:59.781Z,91.74
2023-04-20T03:13:59.758Z,92.16
2023-04-20T03:14:59.776Z,92.26
2023-04-20T03:15:59.781Z,91.74
2023-04-20T03:16:59.723Z,91.95
2023-04-20T03:17:59.799Z,91.85
2023-04-20T03:18:59.727Z,91.85
2023-04-20T03:19:59.703Z,91.95
2023-04-20T03:20:59.701Z,91.95
2023-04-20T03:21:59.678Z,92.26
2023-04-20T03:22:59.680Z,91.43
2023-04-20T03:23:59.670Z,91.74
2023-04-20T03:24:59.701Z,92.16
2023-04-20T03:25:59.633Z,92.16
2023-04-20T03:26:59.630Z,92.05
2023-04-20T03:27:59.612Z,92.36
2023-04-20T03:28:59.664Z,91.64
2023-04-20T03:29:59.626Z,92.26
2023-04-20T03:30:59.577Z,92.16
2023-04-20T03:31:59.664Z,92.26
2023-04-20T03:32:59.647Z,92.36
2023-04-20T03:33:59.556Z,92.16
2023-04-20T03:34:59.574Z,92.05
2023-04-20T03:35:59.564Z,92.26
2023-04-20T03:36:59.547Z,92.26
2023-04-20T03:37:59.527Z,92.51
2023-04-20T03:38:59.539Z,92.36
2023-04-20T03:39:59.516Z,92.72
2023-04-20T03:40:59.506Z,92.72
2023-04-20T03:41:59.486Z,93.02
2023-04-20T03:42:59.484Z,93.02
2023-04-20T03:43:59.471Z,93.08
2023-04-20T03:44:59.466Z,92.88
2023-04-20T03:45:59.511Z,93.02
2023-04-20T03:46:59.439Z,93.02
2023-04-20T03:47:59.446Z,92.98
2023-04-20T03:48:59.415Z,92.98
2023-04-20T03:49:59.431Z,92.93
2023-04-20T03:50:59.413Z,93.23
2023-04-20T03:51:59.411Z,93.40
2023-04-20T03:52:59.373Z,92.93
2023-04-20T03:53:59.353Z,92.61
2023-04-20T03:54:59.378Z,92.30
2023-04-20T03:55:59.350Z,92.36
2023-04-20T03:56:59.348Z,92.36
2023-04-20T03:57:59.338Z,92.41
2023-04-20T03:58:59.389Z,92.72
2023-04-20T03:59:59.303Z,92.57
2023-04-20T04:00:59.292Z,92.51
2023-04-20T04:01:59.356Z,92.93
2023-04-20T04:02:59.460Z,92.78
2023-04-20T04:03:59.679Z,92.88
2023-04-20T04:04:59.330Z,92.88
2023-04-20T04:05:59.267Z,92.98
2023-04-20T04:06:59.279Z,93.08
2023-04-20T04:07:59.232Z,93.29
2023-04-20T04:08:59.222Z,93.29
2023-04-20T04:09:59.237Z,93.13
2023-04-20T04:10:59.233Z,93.60
2023-04-20T04:11:59.235Z,93.71
2023-04-20T04:12:59.236Z,93.85
2023-04-20T04:13:59.180Z,94.12
2023-04-20T04:14:59.168Z,93.81
2023-04-20T04:15:59.184Z,94.12
2023-04-20T04:16:59.207Z,94.23
2023-04-20T04:17:59.186Z,93.81
2023-04-20T04:18:59.171Z,94.02
2023-04-20T04:19:59.146Z,93.40
2023-04-20T04:20:59.127Z,93.50
2023-04-20T04:21:59.111Z,93.81
2023-04-20T04:22:59.081Z,94.12
2023-04-20T04:23:59.084Z,94.06
2023-04-20T04:24:59.089Z,93.40
2023-04-20T04:25:59.067Z,93.29
2023-04-20T04:26:59.056Z,93.29
2023-04-20T04:27:59.048Z,93.33
2023-04-20T04:28:59.056Z,93.13
2023-04-20T04:29:59.020Z,93.33
2023-04-20T04:31:00.050Z,93.02
2023-04-20T04:31:58.990Z,92.82
2023-04-20T04:32:59.005Z,93.13
2023-04-20T04:33:59.058Z,93.13
2023-04-20T04:34:59.008Z,93.02
2023-04-20T04:35:58.987Z,93.02
2023-04-20T04:36:58.955Z,93.13
2023-04-20T04:37:58.974Z,93.02
2023-04-20T04:38:58.934Z,92.61
2023-04-20T04:39:58.931Z,92.93
2023-04-20T04:40:58.923Z,92.93
2023-04-20T04:41:58.903Z,92.72
2023-04-20T04:42:58.908Z,92.93
2023-04-20T04:43:58.885Z,93.02
2023-04-20T04:44:58.882Z,92.51
2023-04-20T04:45:58.909Z,93.02
2023-04-20T04:46:58.853Z,92.72
2023-04-20T04:47:58.916Z,92.72
2023-04-20T04:48:58.833Z,93.02
2023-04-20T04:49:58.860Z,93.02
2023-04-20T04:50:58.825Z,93.19
2023-04-20T04:51:58.811Z,93.33
2023-04-20T04:52:58.802Z,93.08
2023-04-20T04:53:58.823Z,92.93
2023-04-20T04:54:58.801Z,92.61
2023-04-20T04:55:58.768Z,92.61
2023-04-20T04:56:58.768Z,92.93
2023-04-20T04:57:58.753Z,93.13
2023-04-20T04:58:58.735Z,93.02
2023-04-20T04:59:58.734Z,93.29
2023-04-20T05:00:58.774Z,93.33
2023-04-20T05:01:58.774Z,92.88
2023-04-20T05:02:58.886Z,92.98
2023-04-20T05:03:58.891Z,93.02
2023-04-20T05:04:58.684Z,92.78
2023-04-20T05:05:58.690Z,92.78
2023-04-20T05:06:58.676Z,93.19
2023-04-20T05:07:58.655Z,93.08
2023-04-20T05:08:58.650Z,92.68
2023-04-20T05:09:58.628Z,92.68
2023-04-20T05:10:58.639Z,92.78
2023-04-20T05:11:58.608Z,92.82
2023-04-20T05:12:58.623Z,93.02
2023-04-20T05:13:58.597Z,92.98
2023-04-20T05:14:58.588Z,93.02
2023-04-20T05:15:58.614Z,93.19
2023-04-20T05:16:58.577Z,93.19
2023-04-20T05:17:58.651Z,92.78
2023-04-20T05:18:58.552Z,93.19
2023-04-20T05:19:58.723Z,93.08
2023-04-20T05:20:58.586Z,92.68
2023-04-20T05:21:58.535Z,92.88
2023-04-20T05:22:58.532Z,92.68
2023-04-20T05:23:58.501Z,91.99
2023-04-20T05:24:58.541Z,92.88
2023-04-20T05:25:58.489Z,92.82
2023-04-20T05:26:58.486Z,93.08
2023-04-20T05:27:58.463Z,92.98
2023-04-20T05:28:58.453Z,93.08
2023-04-20T05:30:12.662Z,92.78
2023-04-20T05:30:59.460Z,92.78
2023-04-20T05:31:58.458Z,92.68
2023-04-20T05:32:58.424Z,92.26
2023-04-20T05:33:58.409Z,92.05
2023-04-20T05:34:58.421Z,92.16
2023-04-20T05:35:58.399Z,92.05
2023-04-20T05:36:58.373Z,91.74
2023-04-20T05:37:58.370Z,91.95
2023-04-20T05:38:58.373Z,92.16
2023-04-20T05:39:58.383Z,91.74
2023-04-20T05:40:58.349Z,91.08
2023-04-20T05:41:58.387Z,91.33
2023-04-20T05:42:58.325Z,91.12
2023-04-20T05:43:58.307Z,91.70
2023-04-20T05:44:58.311Z,90.50
2023-04-20T05:45:58.406Z,90.39
2023-04-20T05:46:58.271Z,90.60
2023-04-20T05:47:58.298Z,91.12
2023-04-20T05:48:58.257Z,90.70
2023-04-20T05:49:58.270Z,91.43
2023-04-20T05:50:58.235Z,91.95
2023-04-20T05:51:58.228Z,91.80
2023-04-20T05:52:58.223Z,91.18
2023-04-20T05:53:58.326Z,90.56
2023-04-20T05:54:58.240Z,90.87
2023-04-20T05:55:58.211Z,90.25
2023-04-20T05:56:58.181Z,90.66
2023-04-20T05:57:58.173Z,90.97
2023-04-20T05:58:58.175Z,90.45
2023-04-20T05:59:58.165Z,90.87
2023-04-20T06:00:58.167Z,90.87
2023-04-20T06:01:58.169Z,90.14
2023-04-20T06:02:58.260Z,89.94
2023-04-20T06:03:58.330Z,89.52
2023-04-20T06:04:58.218Z,90.04
2023-04-20T06:05:58.104Z,90.87
2023-04-20T06:06:58.078Z,90.87
2023-04-20T06:07:58.103Z,90.66
2023-04-20T06:08:58.116Z,90.14
2023-04-20T06:09:58.065Z,90.56
2023-04-20T06:10:58.059Z,91.18
2023-04-20T06:11:58.036Z,91.39
2023-04-20T06:12:58.053Z,90.77
2023-04-20T06:13:58.028Z,91.28
2023-04-20T06:14:58.039Z,90.66
2023-04-20T06:15:58.063Z,90.66
2023-04-20T06:16:57.993Z,90.66
2023-04-20T06:17:57.998Z,90.66
2023-04-20T06:18:57.981Z,90.81
2023-04-20T06:19:57.998Z,90.77
2023-04-20T06:20:57.990Z,90.56
2023-04-20T06:22:00.656Z,91.22
2023-04-20T06:22:57.976Z,91.49
2023-04-20T06:23:57.973Z,91.22
2023-04-20T06:24:57.922Z,91.22
2023-04-20T06:25:57.938Z,90.66
2023-04-20T06:26:57.904Z,90.56
2023-04-20T06:27:57.905Z,91.18
2023-04-20T06:28:57.893Z,91.28
2023-04-20T06:29:57.866Z,91.28
2023-04-20T06:30:57.888Z,91.22
2023-04-20T06:31:57.914Z,91.91
2023-04-20T06:32:57.899Z,92.22
2023-04-20T06:33:58.833Z,91.76
2023-04-20T06:34:57.857Z,91.45
2023-04-20T06:35:57.816Z,91.35
2023-04-20T06:36:57.837Z,91.24
2023-04-20T06:37:57.891Z,91.49
2023-04-20T06:38:57.791Z,91.45
2023-04-20T06:39:57.879Z,91.86
2023-04-20T06:40:57.785Z,91.80
2023-04-20T06:41:57.761Z,91.14
2023-04-20T06:42:57.746Z,91.35
2023-04-20T06:43:57.734Z,91.24
2023-04-20T06:44:57.745Z,91.51
2023-04-20T06:45:57.724Z,89.86
2023-04-20T06:46:57.780Z,90.37
2023-04-20T06:47:57.748Z,89.44
2023-04-20T06:48:57.689Z,90.02
2023-04-20T06:49:57.701Z,90.44
2023-04-20T06:50:57.683Z,88.78
2023-04-20T06:51:57.678Z,87.95
2023-04-20T06:52:58.650Z,88.36
2023-04-20T06:53:57.641Z,87.81
2023-04-20T06:54:57.643Z,88.12
2023-04-20T06:55:57.734Z,86.25
2023-04-20T06:56:57.615Z,86.63
2023-04-20T06:57:57.597Z,86.11
2023-04-20T06:58:58.081Z,85.80
2023-04-20T06:59:57.612Z,85.18
2023-04-20T07:00:57.578Z,84.83
2023-04-20T07:01:57.668Z,83.65
2023-04-20T07:02:57.606Z,84.28
2023-04-20T07:03:57.696Z,83.45
2023-04-20T07:04:57.688Z,83.25
2023-04-20T07:05:57.540Z,82.93
2023-04-20T07:06:57.520Z,83.55
2023-04-20T07:07:57.503Z,83.34
2023-04-20T07:08:57.494Z,82.97
2023-04-20T07:09:57.486Z,83.59
2023-04-20T07:10:57.494Z,83.94
2023-04-20T07:11:57.560Z,84.31
2023-04-20T07:12:57.463Z,84.83
2023-04-20T07:13:57.459Z,84.52
2023-04-20T07:14:57.436Z,85.00
2023-04-20T07:15:57.460Z,83.97
2023-04-20T07:16:57.453Z,83.25
2023-04-20T07:17:57.446Z,83.34
2023-04-20T07:18:57.483Z,82.69
2023-04-20T07:19:57.409Z,83.55
2023-04-20T07:20:57.404Z,83.86
2023-04-20T07:21:57.391Z,83.86
2023-04-20T07:22:57.367Z,84.28
2023-04-20T07:23:57.391Z,84.59
2023-04-20T07:24:57.378Z,84.69
2023-04-20T07:25:57.357Z,83.97
2023-04-20T07:26:57.320Z,84.69
2023-04-20T07:27:57.405Z,84.69
2023-04-20T07:28:57.305Z,84.79
2023-04-20T07:29:57.308Z,84.00
2023-04-20T07:30:57.290Z,84.83
2023-04-20T07:31:57.301Z,84.83
2023-04-20T07:32:57.311Z,84.77
2023-04-20T07:33:57.262Z,84.97
2023-04-20T07:34:57.254Z,86.21
2023-04-20T07:35:57.243Z,86.73
2023-04-20T07:36:57.227Z,85.86
2023-04-20T07:37:57.226Z,84.83
2023-04-20T07:38:57.216Z,85.04
2023-04-20T07:39:57.199Z,84.83
2023-04-20T07:40:57.197Z,86.38
2023-04-20T07:41:57.225Z,86.69
2023-04-20T07:42:57.197Z,85.14
2023-04-20T07:43:57.173Z,85.55
2023-04-20T07:44:57.149Z,86.34
2023-04-20T07:45:57.209Z,86.03
2023-04-20T07:46:57.152Z,84.63
2023-04-20T07:47:57.213Z,84.89
2023-04-20T07:48:57.114Z,83.97
2023-04-20T07:49:57.139Z,84.55
2023-04-20T07:50:57.107Z,83.97
2023-04-20T07:52:09.372Z,83.62
2023-04-20T07:52:59.093Z,83.68
2023-04-20T07:53:57.075Z,82.61
2023-04-20T07:54:57.054Z,82.33
2023-04-20T07:55:57.037Z,81.37
2023-04-20T07:56:57.030Z,81.63
2023-04-20T07:57:57.087Z,80.65
2023-04-20T07:58:57.028Z,79.10
2023-04-20T07:59:57.003Z,79.96
2023-04-20T08:00:56.999Z,80.13
2023-04-20T08:01:57.010Z,78.83
2023-04-20T08:02:57.072Z,79.86
2023-04-20T08:03:57.208Z,79.14
2023-04-20T08:04:57.285Z,79.65
2023-04-20T08:05:57.021Z,80.41
2023-04-20T08:06:56.940Z,80.34
2023-04-20T08:07:56.932Z,81.82
2023-04-20T08:08:56.967Z,82.68
2023-04-20T08:09:56.916Z,80.14
2023-04-20T08:10:56.926Z,80.86
2023-04-20T08:11:56.893Z,81.58
2023-04-20T08:12:56.916Z,81.27
2023-04-20T08:13:58.449Z,81.23
2023-04-20T08:14:56.936Z,80.82
2023-04-20T08:15:56.936Z,80.04
2023-04-20T08:16:56.870Z,80.44
2023-04-20T08:17:56.871Z,80.44
2023-04-20T08:18:56.933Z,80.76
2023-04-20T08:19:56.821Z,80.65
2023-04-20T08:20:56.827Z,79.69
2023-04-20T08:21:56.800Z,79.14
2023-04-20T08:22:56.788Z,79.03
2023-04-20T08:23:56.773Z,79.30
2023-04-20T08:24:56.776Z,78.58
2023-04-20T08:25:56.817Z,78.55
2023-04-20T08:26:56.753Z,78.61
2023-04-20T08:27:56.741Z,77.03
2023-04-20T08:28:56.741Z,75.59
2023-04-20T08:29:56.718Z,75.76
2023-04-20T08:30:56.757Z,73.47
2023-04-20T08:31:56.780Z,72.44
2023-04-20T08:32:56.741Z,72.99
2023-04-20T08:33:56.690Z,75.08
2023-04-20T08:34:56.671Z,75.18
2023-04-20T08:35:56.659Z,75.76
2023-04-20T08:36:56.672Z,73.27
2023-04-20T08:37:56.659Z,73.47
2023-04-20T08:38:56.620Z,72.89
2023-04-20T08:39:56.628Z,71.01
2023-04-20T08:40:56.628Z,68.32
2023-04-20T08:41:56.608Z,64.34
2023-04-20T08:42:56.612Z,66.31
2023-04-20T08:43:56.602Z,66.35
2023-04-20T08:44:56.581Z,66.48
2023-04-20T08:45:56.556Z,67.10
2023-04-20T08:46:56.636Z,65.12
2023-04-20T08:47:56.596Z,66.52
2023-04-20T08:48:56.526Z,66.08
2023-04-20T08:49:56.550Z,65.09
2023-04-20T08:50:56.516Z,65.83
2023-04-20T08:52:28.453Z,66.27
2023-04-20T08:52:56.513Z,67.66
2023-04-20T08:53:56.506Z,68.54
2023-04-20T08:54:57.884Z,70.32
2023-04-20T08:55:57.552Z,70.87
2023-04-20T08:56:56.478Z,70.83
2023-04-20T08:57:56.483Z,72.00
2023-04-20T08:58:56.475Z,72.61
2023-04-20T08:59:56.457Z,72.00
2023-04-20T09:00:56.499Z,72.13
2023-04-20T09:01:56.456Z,71.92
2023-04-20T09:02:56.569Z,72.54
2023-04-20T09:03:56.599Z,72.92
2023-04-20T09:04:56.743Z,72.75
2023-04-20T09:05:56.401Z,72.96
2023-04-20T09:06:56.531Z,73.47
2023-04-20T09:07:56.548Z,71.89
2023-04-20T09:08:56.362Z,72.44
2023-04-20T09:09:56.362Z,70.66
2023-04-20T09:10:56.354Z,70.66
2023-04-20T09:11:56.330Z,70.97
2023-04-20T09:12:56.348Z,68.30
2023-04-20T09:13:56.315Z,70.63
2023-04-20T09:14:56.307Z,69.33
2023-04-20T09:15:56.434Z,66.53
2023-04-20T09:16:56.393Z,65.95
2023-04-20T09:17:56.311Z,67.76
2023-04-20T09:18:56.286Z,67.28
2023-04-20T09:19:56.292Z,65.64
2023-04-20T09:20:56.251Z,66.02
2023-04-20T09:21:56.243Z,65.06
2023-04-20T09:22:56.269Z,64.88
2023-04-20T09:23:56.248Z,63.94
2023-04-20T09:24:56.192Z,63.20
2023-04-20T09:25:56.227Z,63.70
2023-04-20T09:26:56.200Z,63.29
2023-04-20T09:27:56.166Z,62.10
2023-04-20T09:28:56.166Z,61.80
2023-04-20T09:29:57.130Z,60.52
2023-04-20T09:30:56.170Z,59.16
2023-04-20T09:31:56.225Z,60.49
2023-04-20T09:32:56.160Z,61.67
2023-04-20T09:33:56.137Z,61.75
2023-04-20T09:34:56.143Z,61.25
2023-04-20T09:35:56.186Z,63.02
2023-04-20T09:36:56.126Z,64.79
2023-04-20T09:37:56.063Z,64.07
2023-04-20T09:38:56.113Z,64.28
2023-04-20T09:39:56.100Z,65.51
2023-04-20T09:40:56.282Z,65.67
2023-04-20T09:41:56.041Z,66.31
2023-04-20T09:42:56.032Z,66.86
2023-04-20T09:43:56.006Z,67.48
2023-04-20T09:44:56.011Z,67.79
2023-04-20T09:45:56.076Z,67.55
2023-04-20T09:46:55.996Z,66.49
2023-04-20T09:47:56.049Z,64.00
2023-04-20T09:48:55.978Z,64.28
2023-04-20T09:49:56.400Z,63.43
2023-04-20T09:50:55.954Z,62.58
2023-04-20T09:51:56.031Z,62.24
2023-04-20T09:52:55.939Z,63.17
2023-04-20T09:53:55.922Z,63.98
2023-04-20T09:54:55.919Z,61.79
2023-04-20T09:55:55.942Z,63.94
2023-04-20T09:56:55.906Z,63.64
2023-04-20T09:57:55.894Z,62.71
2023-04-20T09:58:55.862Z,63.56
2023-04-20T09:59:55.868Z,63.02
2023-04-20T10:00:55.935Z,63.53
2023-04-20T10:01:55.846Z,63.70
2023-04-20T10:02:55.928Z,62.83
2023-04-20T10:03:55.935Z,61.44
2023-04-20T10:04:55.837Z,59.39
2023-04-20T10:05:55.805Z,60.69
2023-04-20T10:06:55.787Z,61.00
2023-04-20T10:07:55.789Z,62.43
2023-04-20T10:08:55.762Z,61.34
2023-04-20T10:09:55.815Z,61.57
2023-04-20T10:10:55.735Z,62.52
2023-04-20T10:11:57.754Z,62.76
2023-04-20T10:12:56.724Z,62.76
2023-04-20T10:13:55.731Z,63.26
2023-04-20T10:14:55.702Z,63.70
2023-04-20T10:15:55.742Z,63.78
2023-04-20T10:16:55.772Z,63.06
2023-04-20T10:17:55.758Z,63.98
2023-04-20T10:18:55.806Z,61.83
2023-04-20T10:19:55.663Z,61.63
2023-04-20T10:20:55.675Z,62.37
2023-04-20T10:21:55.641Z,62.27
2023-04-20T10:22:55.635Z,62.07
2023-04-20T10:23:55.632Z,61.55
2023-04-20T10:24:55.613Z,60.60
2023-04-20T10:25:55.681Z,61.32
2023-04-20T10:26:55.669Z,61.19
2023-04-20T10:27:55.568Z,61.29
2023-04-20T10:28:55.609Z,61.50
2023-04-20T10:29:55.615Z,61.26
2023-04-20T10:30:55.579Z,60.65
2023-04-20T10:31:55.540Z,61.57
2023-04-20T10:32:55.604Z,61.77
2023-04-20T10:33:55.600Z,62.11
2023-04-20T10:34:55.571Z,61.70
2023-04-20T10:35:55.502Z,62.14
2023-04-20T10:36:55.521Z,62.35
2023-04-20T10:37:55.519Z,62.99
2023-04-20T10:38:55.508Z,64.14
2023-04-20T10:39:55.496Z,64.73
2023-04-20T10:40:55.487Z,63.70
2023-04-20T10:41:55.458Z,64.14
2023-04-20T10:42:55.459Z,64.97
2023-04-20T10:43:55.561Z,65.04
2023-04-20T10:44:55.427Z,65.78
2023-04-20T10:45:55.491Z,65.75
2023-04-20T10:46:55.439Z,65.96
2023-04-20T10:47:55.507Z,66.34
2023-04-20T10:48:55.441Z,66.34
2023-04-20T10:49:55.401Z,66.51
2023-04-20T10:50:55.350Z,65.15
2023-04-20T10:51:56.060Z,64.64
2023-04-20T10:52:55.347Z,65.18
2023-04-20T10:53:55.376Z,65.28
2023-04-20T10:54:55.327Z,65.66
2023-04-20T10:55:55.327Z,64.23
2023-04-20T10:56:55.313Z,63.82
2023-04-20T10:57:55.282Z,64.03
2023-04-20T10:58:55.280Z,64.18
2023-04-20T10:59:55.274Z,63.88
2023-04-20T11:00:55.267Z,65.24
2023-04-20T11:01:55.273Z,65.24
2023-04-20T11:02:55.463Z,63.81
2023-04-20T11:03:55.264Z,62.65
2023-04-20T11:04:55.237Z,61.80
2023-04-20T11:05:55.206Z,59.42
2023-04-20T11:06:55.232Z,59.35
2023-04-20T11:07:55.244Z,59.35
2023-04-20T11:08:55.180Z,64.09
2023-04-20T11:09:55.212Z,63.26
2023-04-20T11:10:55.245Z,61.70
2023-04-20T11:11:55.168Z,62.29
2023-04-20T11:12:55.180Z,63.95
2023-04-20T11:13:55.157Z,64.36
2023-04-20T11:14:55.105Z,63.85
2023-04-20T11:15:55.182Z,64.06
2023-04-20T11:16:55.141Z,63.95
2023-04-20T11:17:55.217Z,63.57
2023-04-20T11:18:55.104Z,63.47
2023-04-20T11:19:55.124Z,64.80
2023-04-20T11:20:55.116Z,64.60
2023-04-20T11:21:55.082Z,65.24
2023-04-20T11:22:55.085Z,65.68
2023-04-20T11:23:55.085Z,65.58
2023-04-20T11:24:55.018Z,65.04
2023-04-20T11:25:55.072Z,64.42
2023-04-20T11:26:55.064Z,64.62
2023-04-20T11:27:54.982Z,64.62
2023-04-20T11:28:56.280Z,64.42
2023-04-20T11:29:55.993Z,64.53
2023-04-20T11:30:54.976Z,64.53
2023-04-20T11:31:55.160Z,65.31
2023-04-20T11:32:55.077Z,64.98
2023-04-20T11:33:54.931Z,64.13
2023-04-20T11:35:05.544Z,63.75
2023-04-20T11:35:56.928Z,64.18
2023-04-20T11:36:55.013Z,65.21
2023-04-20T11:37:54.939Z,65.83
2023-04-20T11:38:54.941Z,65.55
2023-04-20T11:39:54.893Z,65.78
2023-04-20T11:40:54.891Z,65.99
2023-04-20T11:41:54.969Z,65.27
2023-04-20T11:42:55.003Z,65.17
2023-04-20T11:43:55.093Z,65.27
2023-04-20T11:44:54.896Z,65.99
2023-04-20T11:45:54.937Z,64.70
2023-04-20T11:46:54.833Z,63.31
2023-04-20T11:47:54.831Z,62.08
2023-04-20T11:48:54.823Z,62.66
2023-04-20T11:49:54.861Z,62.66
2023-04-20T11:50:54.844Z,62.18
2023-04-20T11:51:54.834Z,61.60
2023-04-20T11:52:54.850Z,62.32
2023-04-20T11:53:54.774Z,62.45
2023-04-20T11:54:54.797Z,62.65
2023-04-20T11:55:54.783Z,62.55
2023-04-20T11:56:54.753Z,63.68
2023-04-20T11:57:54.754Z,62.73
2023-04-20T11:58:54.795Z,62.39
2023-04-20T11:59:54.875Z,62.11
2023-04-20T12:00:54.699Z,62.42
2023-04-20T12:01:54.725Z,62.18
2023-04-20T12:02:54.822Z,62.90
2023-04-20T12:03:54.916Z,61.65
2023-04-20T12:04:54.730Z,60.62
2023-04-20T12:05:54.743Z,60.85
2023-04-20T12:06:54.623Z,61.16
2023-04-20T12:07:54.625Z,61.47
2023-04-20T12:08:54.628Z,61.44
2023-04-20T12:09:54.593Z,60.80
2023-04-20T12:10:56.636Z,59.80
2023-04-20T12:11:54.599Z,60.72
2023-04-20T12:12:54.596Z,60.60
2023-04-20T12:13:54.651Z,60.05
2023-04-20T12:14:54.599Z,59.31
2023-04-20T12:15:54.659Z,59.69
2023-04-20T12:16:55.545Z,59.05
2023-04-20T12:17:54.562Z,59.16
2023-04-20T12:18:54.569Z,59.26
2023-04-20T12:19:54.563Z,58.92
2023-04-20T12:20:54.531Z,58.44
2023-04-20T12:21:54.552Z,59.18
2023-04-20T12:22:56.032Z,60.69
2023-04-20T12:23:54.496Z,59.26
2023-04-20T12:24:54.456Z,59.69
2023-04-20T12:25:54.467Z,60.82
2023-04-20T12:26:54.429Z,59.31
2023-04-20T12:27:54.431Z,59.98
2023-04-20T12:28:54.435Z,61.72
2023-04-20T12:29:54.404Z,60.80
2023-04-20T12:30:54.515Z,61.88
2023-04-20T12:31:54.636Z,62.11
2023-04-20T12:32:54.552Z,62.59
2023-04-20T12:33:54.370Z,62.73
2023-04-20T12:34:54.392Z,63.47
2023-04-20T12:35:54.362Z,63.47
2023-04-20T12:36:54.338Z,63.95
2023-04-20T12:37:54.399Z,63.95
2023-04-20T12:38:54.325Z,63.75
2023-04-20T12:39:54.423Z,63.31
2023-04-20T12:40:54.409Z,62.52
2023-04-20T12:41:54.427Z,62.32
2023-04-20T12:42:54.371Z,62.65
2023-04-20T12:43:54.406Z,62.85
2023-04-20T12:44:54.350Z,63.68
2023-04-20T12:45:54.267Z,62.85
2023-04-20T12:46:54.303Z,63.06
2023-04-20T12:47:56.225Z,63.47
2023-04-20T12:48:54.243Z,63.98
2023-04-20T12:49:54.400Z,64.70
2023-04-20T12:50:54.408Z,64.39
2023-04-20T12:51:54.275Z,64.70